Main page
METAR-TAF:

METAR-TAF

Airports :

Quimper–Bretagne Airport

Quimper, France

latitude: 47-58N, longitude: 004-10W, elevation: 92 m

Current weather observation

The report was made 23 minutes ago, at 14:00 UTC
Wind 16 kt from the Southeast, varying between East and South
Temperature 15°C
Humidity 48%
Pressure 1016 hPa
Visibility 10 km or more
no clouds below 1500 m and no cumulonimbus

METAR: LFRQ 041400Z AUTO 14016KT 100V170 CAVOK 15/04 Q1016

Time: 16:23 (14:23 UTC)


TAF: missing

Weather observations and forecasts of more than 4000 airports (METAR and TAF reports).

The available stations are represented by yellow and red dots on the map.

Hover mouse over dot to see the name of the station.

Then click to see weather observations and forecasts.

To change the map : click on the green buttons with a black cross to zoom in, on the green button with a dash to zoom out, or on the green arrows for adjacent maps.


METAR-TAF: